sensor_id;sensor_type;location;lat;lon;timestamp;pressure;altitude;pressure_sealevel;temperature;humidity
44044;BME280;29709;52.396;16.796;2023-02-27T00:01:28;102539.93;;;1.12;66.14
44044;BME280;29709;52.396;16.796;2023-02-27T00:04:45;102540.80;;;1.12;66.20
44044;BME280;29709;52.396;16.796;2023-02-27T00:07:58;102546.16;;;1.14;65.99
44044;BME280;29709;52.396;16.796;2023-02-27T00:11:12;102536.09;;;1.18;66.30
44044;BME280;29709;52.396;16.796;2023-02-27T00:14:25;102538.00;;;1.15;66.68
44044;BME280;29709;52.396;16.796;2023-02-27T00:17:39;102533.14;;;1.02;66.62
44044;BME280;29709;52.396;16.796;2023-02-27T00:20:53;102539.78;;;0.95;66.67
44044;BME280;29709;52.396;16.796;2023-02-27T00:24:07;102542.59;;;0.92;66.58
44044;BME280;29709;52.396;16.796;2023-02-27T00:27:20;102542.80;;;0.87;66.85
44044;BME280;29709;52.396;16.796;2023-02-27T00:30:33;102535.73;;;0.83;66.57
44044;BME280;29709;52.396;16.796;2023-02-27T00:33:47;102537.55;;;0.82;66.71
44044;BME280;29709;52.396;16.796;2023-02-27T00:37:01;102542.05;;;0.83;66.84
44044;BME280;29709;52.396;16.796;2023-02-27T00:40:15;102545.74;;;0.81;67.10
44044;BME280;29709;52.396;16.796;2023-02-27T00:43:29;102543.62;;;0.89;67.33
44044;BME280;29709;52.396;16.796;2023-02-27T00:46:42;102546.24;;;0.91;67.25
44044;BME280;29709;52.396;16.796;2023-02-27T00:49:56;102551.73;;;0.89;67.13
44044;BME280;29709;52.396;16.796;2023-02-27T00:53:10;102550.65;;;0.93;67.50
44044;BME280;29709;52.396;16.796;2023-02-27T00:56:23;102548.70;;;0.97;67.38
44044;BME280;29709;52.396;16.796;2023-02-27T00:59:37;102551.41;;;0.97;67.01
44044;BME280;29709;52.396;16.796;2023-02-27T01:02:50;102552.16;;;1.00;67.41
44044;BME280;29709;52.396;16.796;2023-02-27T01:06:04;102552.10;;;1.02;67.67
44044;BME280;29709;52.396;16.796;2023-02-27T01:09:18;102558.95;;;1.10;67.36
44044;BME280;29709;52.396;16.796;2023-02-27T01:12:31;102554.70;;;1.05;67.00
44044;BME280;29709;52.396;16.796;2023-02-27T01:15:45;102556.05;;;0.93;67.23
44044;BME280;29709;52.396;16.796;2023-02-27T01:18:59;102557.38;;;0.83;67.19
44044;BME280;29709;52.396;16.796;2023-02-27T01:22:12;102560.59;;;0.71;67.06
44044;BME280;29709;52.396;16.796;2023-02-27T01:25:26;102551.87;;;0.64;67.34
44044;BME280;29709;52.396;16.796;2023-02-27T01:28:40;102557.44;;;0.60;68.17
44044;BME280;29709;52.396;16.796;2023-02-27T01:31:53;102561.90;;;0.61;67.81
44044;BME280;29709;52.396;16.796;2023-02-27T01:35:07;102553.99;;;0.56;67.87
44044;BME280;29709;52.396;16.796;2023-02-27T01:38:21;102559.55;;;0.51;68.13
44044;BME280;29709;52.396;16.796;2023-02-27T01:41:35;102554.36;;;0.47;68.58
44044;BME280;29709;52.396;16.796;2023-02-27T01:48:18;102565.88;;;0.28;69.82
44044;BME280;29709;52.396;16.796;2023-02-27T01:51:37;102561.61;;;0.23;69.82
44044;BME280;29709;52.396;16.796;2023-02-27T01:54:54;102562.48;;;0.23;69.53
44044;BME280;29709;52.396;16.796;2023-02-27T01:58:10;102569.66;;;0.24;70.00
44044;BME280;29709;52.396;16.796;2023-02-27T02:01:25;102567.70;;;0.28;69.57
44044;BME280;29709;52.396;16.796;2023-02-27T02:04:39;102569.53;;;0.27;69.63
44044;BME280;29709;52.396;16.796;2023-02-27T02:07:53;102573.37;;;0.22;69.67
44044;BME280;29709;52.396;16.796;2023-02-27T02:11:09;102572.51;;;0.20;69.78
44044;BME280;29709;52.396;16.796;2023-02-27T02:14:24;102568.23;;;0.14;70.39
44044;BME280;29709;52.396;16.796;2023-02-27T02:17:45;102577.10;;;0.18;70.02
44044;BME280;29709;52.396;16.796;2023-02-27T02:28:25;102575.63;;;0.09;70.18
44044;BME280;29709;52.396;16.796;2023-02-27T02:41:53;102583.92;;;0.05;70.83
44044;BME280;29709;52.396;16.796;2023-02-27T02:45:15;102585.98;;;-0.02;71.07
44044;BME280;29709;52.396;16.796;2023-02-27T02:48:39;102593.45;;;-0.09;71.40
44044;BME280;29709;52.396;16.796;2023-02-27T02:52:02;102597.17;;;-0.13;70.86
44044;BME280;29709;52.396;16.796;2023-02-27T03:02:16;102604.84;;;-0.25;72.04
44044;BME280;29709;52.396;16.796;2023-02-27T03:05:42;102609.42;;;-0.27;71.96
44044;BME280;29709;52.396;16.796;2023-02-27T03:12:23;102608.86;;;-0.37;72.47
44044;BME280;29709;52.396;16.796;2023-02-27T03:15:44;102607.05;;;-0.37;72.87
44044;BME280;29709;52.396;16.796;2023-02-27T03:22:33;102618.15;;;-0.19;72.72
44044;BME280;29709;52.396;16.796;2023-02-27T03:25:50;102625.07;;;-0.12;72.67
44044;BME280;29709;52.396;16.796;2023-02-27T03:29:09;102620.35;;;-0.06;72.49
44044;BME280;29709;52.396;16.796;2023-02-27T03:35:56;102625.87;;;-0.09;72.19
44044;BME280;29709;52.396;16.796;2023-02-27T03:49:28;102636.65;;;-0.34;73.24
44044;BME280;29709;52.396;16.796;2023-02-27T03:52:42;102641.28;;;-0.37;73.50
44044;BME280;29709;52.396;16.796;2023-02-27T03:55:57;102643.99;;;-0.37;73.35
44044;BME280;29709;52.396;16.796;2023-02-27T03:59:12;102645.75;;;-0.36;73.71
44044;BME280;29709;52.396;16.796;2023-02-27T04:02:27;102649.22;;;-0.33;73.95
44044;BME280;29709;52.396;16.796;2023-02-27T04:05:41;102657.01;;;-0.23;74.67
44044;BME280;29709;52.396;16.796;2023-02-27T04:09:06;102670.27;;;-0.16;73.54
44044;BME280;29709;52.396;16.796;2023-02-27T04:22:46;102676.77;;;0.04;73.98
44044;BME280;29709;52.396;16.796;2023-02-27T04:33:07;102671.86;;;0.15;74.63
44044;BME280;29709;52.396;16.796;2023-02-27T04:36:26;102674.63;;;0.13;74.91
44044;BME280;29709;52.396;16.796;2023-02-27T04:43:07;102683.50;;;0.17;74.59
44044;BME280;29709;52.396;16.796;2023-02-27T04:46:25;102686.06;;;0.21;75.27
44044;BME280;29709;52.396;16.796;2023-02-27T04:49:46;102678.47;;;0.31;74.99
44044;BME280;29709;52.396;16.796;2023-02-27T04:56:36;102686.42;;;0.36;74.93
44044;BME280;29709;52.396;16.796;2023-02-27T04:59:54;102684.47;;;0.39;75.44
44044;BME280;29709;52.396;16.796;2023-02-27T05:03:24;102687.96;;;0.43;74.80
44044;BME280;29709;52.396;16.796;2023-02-27T05:06:36;102689.82;;;0.41;75.09
44044;BME280;29709;52.396;16.796;2023-02-27T05:09:55;102692.59;;;0.39;74.82
44044;BME280;29709;52.396;16.796;2023-02-27T05:13:25;102693.40;;;0.41;75.32
44044;BME280;29709;52.396;16.796;2023-02-27T05:16:38;102697.85;;;0.44;75.07
44044;BME280;29709;52.396;16.796;2023-02-27T05:19:54;102707.87;;;0.40;76.16
44044;BME280;29709;52.396;16.796;2023-02-27T05:23:15;102699.76;;;0.40;75.59
44044;BME280;29709;52.396;16.796;2023-02-27T05:30:09;102712.41;;;0.40;75.76
44044;BME280;29709;52.396;16.796;2023-02-27T05:33:31;102709.95;;;0.34;76.24
44044;BME280;29709;52.396;16.796;2023-02-27T05:40:16;102715.30;;;0.35;76.89
44044;BME280;29709;52.396;16.796;2023-02-27T05:43:35;102721.19;;;0.46;76.13
44044;BME280;29709;52.396;16.796;2023-02-27T05:46:55;102724.78;;;0.47;76.37
44044;BME280;29709;52.396;16.796;2023-02-27T05:50:24;102731.84;;;0.51;76.24
44044;BME280;29709;52.396;16.796;2023-02-27T05:53:43;102731.07;;;0.47;76.55
44044;BME280;29709;52.396;16.796;2023-02-27T05:56:58;102740.20;;;0.45;76.44
44044;BME280;29709;52.396;16.796;2023-02-27T06:00:24;102745.59;;;0.45;76.45
44044;BME280;29709;52.396;16.796;2023-02-27T06:03:40;102746.53;;;0.44;77.07
44044;BME280;29709;52.396;16.796;2023-02-27T06:06:54;102752.59;;;0.50;76.56
44044;BME280;29709;52.396;16.796;2023-02-27T06:10:14;102755.97;;;0.57;77.05
44044;BME280;29709;52.396;16.796;2023-02-27T06:13:28;102752.19;;;0.61;76.50
44044;BME280;29709;52.396;16.796;2023-02-27T06:16:41;102752.10;;;0.64;76.87
44044;BME280;29709;52.396;16.796;2023-02-27T06:19:55;102756.38;;;0.70;76.64
44044;BME280;29709;52.396;16.796;2023-02-27T06:23:09;102759.91;;;0.72;76.68
44044;BME280;29709;52.396;16.796;2023-02-27T06:26:23;102757.94;;;0.77;76.49
44044;BME280;29709;52.396;16.796;2023-02-27T06:29:37;102751.52;;;0.79;76.66
44044;BME280;29709;52.396;16.796;2023-02-27T06:32:50;102747.98;;;0.77;76.51
44044;BME280;29709;52.396;16.796;2023-02-27T06:36:04;102755.92;;;0.82;76.50
44044;BME280;29709;52.396;16.796;2023-02-27T06:39:18;102763.10;;;0.83;77.32
44044;BME280;29709;52.396;16.796;2023-02-27T06:42:31;102771.95;;;0.88;76.97
44044;BME280;29709;52.396;16.796;2023-02-27T06:45:45;102768.29;;;0.89;76.95
44044;BME280;29709;52.396;16.796;2023-02-27T06:48:58;102771.61;;;0.97;76.72
44044;BME280;29709;52.396;16.796;2023-02-27T06:52:12;102778.78;;;0.98;76.86
44044;BME280;29709;52.396;16.796;2023-02-27T06:55:25;102774.83;;;1.07;77.21
44044;BME280;29709;52.396;16.796;2023-02-27T06:58:39;102785.41;;;1.13;76.93
44044;BME280;29709;52.396;16.796;2023-02-27T07:01:52;102780.88;;;1.13;76.52
44044;BME280;29709;52.396;16.796;2023-02-27T07:05:07;102788.05;;;1.14;76.83
44044;BME280;29709;52.396;16.796;2023-02-27T07:08:20;102788.05;;;1.14;76.74
44044;BME280;29709;52.396;16.796;2023-02-27T07:11:34;102802.73;;;1.09;76.67
44044;BME280;29709;52.396;16.796;2023-02-27T07:14:47;102806.27;;;1.11;76.76
44044;BME280;29709;52.396;16.796;2023-02-27T07:18:01;102805.31;;;1.12;76.67
44044;BME280;29709;52.396;16.796;2023-02-27T07:21:15;102801.44;;;1.19;76.84
44044;BME280;29709;52.396;16.796;2023-02-27T07:24:28;102800.37;;;1.23;76.55
44044;BME280;29709;52.396;16.796;2023-02-27T07:27:42;102807.46;;;1.27;76.42
44044;BME280;29709;52.396;16.796;2023-02-27T07:30:59;102815.67;;;1.24;76.36
44044;BME280;29709;52.396;16.796;2023-02-27T07:34:12;102817.34;;;1.28;76.37
44044;BME280;29709;52.396;16.796;2023-02-27T07:37:27;102814.58;;;1.30;76.82
44044;BME280;29709;52.396;16.796;2023-02-27T07:40:41;102822.28;;;1.40;76.36
44044;BME280;29709;52.396;16.796;2023-02-27T07:43:55;102819.27;;;1.48;76.33
44044;BME280;29709;52.396;16.796;2023-02-27T07:47:08;102826.39;;;1.51;76.00
44044;BME280;29709;52.396;16.796;2023-02-27T07:50:23;102824.37;;;1.56;76.10
44044;BME280;29709;52.396;16.796;2023-02-27T07:53:37;102824.44;;;1.54;75.82
44044;BME280;29709;52.396;16.796;2023-02-27T07:56:50;102824.13;;;1.62;75.89
44044;BME280;29709;52.396;16.796;2023-02-27T08:00:06;102823.77;;;1.71;75.77
44044;BME280;29709;52.396;16.796;2023-02-27T08:03:21;102829.70;;;1.81;75.29
44044;BME280;29709;52.396;16.796;2023-02-27T08:06:34;102834.18;;;1.82;75.49
44044;BME280;29709;52.396;16.796;2023-02-27T08:09:48;102835.57;;;1.92;75.25
44044;BME280;29709;52.396;16.796;2023-02-27T08:13:01;102834.48;;;1.96;74.90
44044;BME280;29709;52.396;16.796;2023-02-27T08:16:17;102834.11;;;2.05;74.78
44044;BME280;29709;52.396;16.796;2023-02-27T08:19:31;102834.05;;;2.07;74.87
44044;BME280;29709;52.396;16.796;2023-02-27T08:22:44;102837.46;;;2.12;74.57
44044;BME280;29709;52.396;16.796;2023-02-27T08:25:58;102846.34;;;2.15;74.40
44044;BME280;29709;52.396;16.796;2023-02-27T08:29:13;102841.41;;;2.25;74.33
44044;BME280;29709;52.396;16.796;2023-02-27T08:32:26;102851.88;;;2.34;74.06
44044;BME280;29709;52.396;16.796;2023-02-27T08:35:40;102847.12;;;2.39;73.96
44044;BME280;29709;52.396;16.796;2023-02-27T08:38:54;102855.71;;;2.50;73.51
44044;BME280;29709;52.396;16.796;2023-02-27T08:42:07;102860.53;;;2.64;73.61
44044;BME280;29709;52.396;16.796;2023-02-27T08:45:21;102860.33;;;2.69;72.47
44044;BME280;29709;52.396;16.796;2023-02-27T08:48:35;102857.49;;;2.72;72.62
44044;BME280;29709;52.396;16.796;2023-02-27T08:51:48;102864.32;;;2.80;72.20
44044;BME280;29709;52.396;16.796;2023-02-27T08:55:02;102867.52;;;2.90;71.98
44044;BME280;29709;52.396;16.796;2023-02-27T08:58:16;102864.54;;;2.96;71.31
44044;BME280;29709;52.396;16.796;2023-02-27T09:01:30;102869.55;;;3.05;71.05
44044;BME280;29709;52.396;16.796;2023-02-27T09:04:46;102872.81;;;3.13;71.08
44044;BME280;29709;52.396;16.796;2023-02-27T09:08:01;102875.04;;;3.24;71.21
44044;BME280;29709;52.396;16.796;2023-02-27T09:11:15;102881.05;;;3.31;70.68
44044;BME280;29709;52.396;16.796;2023-02-27T09:14:29;102878.15;;;3.35;69.59
44044;BME280;29709;52.396;16.796;2023-02-27T09:17:42;102884.53;;;3.34;69.83
44044;BME280;29709;52.396;16.796;2023-02-27T09:20:56;102878.60;;;3.45;70.34
44044;BME280;29709;52.396;16.796;2023-02-27T09:24:09;102880.14;;;3.51;69.74
44044;BME280;29709;52.396;16.796;2023-02-27T09:27:23;102886.83;;;3.62;69.78
44044;BME280;29709;52.396;16.796;2023-02-27T09:30:38;102880.68;;;3.78;69.75
44044;BME280;29709;52.396;16.796;2023-02-27T09:33:51;102891.16;;;3.85;68.42
44044;BME280;29709;52.396;16.796;2023-02-27T09:37:05;102892.13;;;3.84;68.39
44044;BME280;29709;52.396;16.796;2023-02-27T09:40:28;102898.80;;;3.96;68.51
44044;BME280;29709;52.396;16.796;2023-02-27T09:43:45;102894.40;;;3.93;67.29
44044;BME280;29709;52.396;16.796;2023-02-27T09:46:59;102892.03;;;4.04;66.44
44044;BME280;29709;52.396;16.796;2023-02-27T09:53:44;102894.19;;;3.98;67.41
44044;BME280;29709;52.396;16.796;2023-02-27T09:57:02;102906.52;;;4.05;67.17
44044;BME280;29709;52.396;16.796;2023-02-27T10:14:09;102911.05;;;4.42;66.63
44044;BME280;29709;52.396;16.796;2023-02-27T10:20:55;102910.74;;;4.48;64.13
44044;BME280;29709;52.396;16.796;2023-02-27T10:27:41;102920.09;;;4.43;63.05
44044;BME280;29709;52.396;16.796;2023-02-27T10:30:57;102922.89;;;4.41;63.63
44044;BME280;29709;52.396;16.796;2023-02-27T10:34:14;102917.82;;;4.33;63.99
44044;BME280;29709;52.396;16.796;2023-02-27T10:37:30;102919.85;;;4.47;64.27
44044;BME280;29709;52.396;16.796;2023-02-27T10:40:45;102923.31;;;4.51;62.97
44044;BME280;29709;52.396;16.796;2023-02-27T10:44:00;102917.86;;;4.51;61.55
44044;BME280;29709;52.396;16.796;2023-02-27T10:47:16;102912.45;;;4.85;62.97
44044;BME280;29709;52.396;16.796;2023-02-27T10:50:33;102907.97;;;5.02;61.46
44044;BME280;29709;52.396;16.796;2023-02-27T10:53:47;102918.95;;;4.83;59.26
44044;BME280;29709;52.396;16.796;2023-02-27T10:57:03;102913.30;;;4.51;59.18
44044;BME280;29709;52.396;16.796;2023-02-27T11:03:45;102905.80;;;4.38;59.27
44044;BME280;29709;52.396;16.796;2023-02-27T11:07:04;102919.74;;;4.31;59.14
44044;BME280;29709;52.396;16.796;2023-02-27T11:10:26;102916.52;;;4.23;58.83
44044;BME280;29709;52.396;16.796;2023-02-27T11:13:42;102922.12;;;4.20;58.83
44044;BME280;29709;52.396;16.796;2023-02-27T11:16:58;102911.16;;;4.22;58.17
44044;BME280;29709;52.396;16.796;2023-02-27T11:20:39;102922.73;;;4.08;58.74
44044;BME280;29709;52.396;16.796;2023-02-27T11:23:37;102910.37;;;4.01;59.26
44044;BME280;29709;52.396;16.796;2023-02-27T11:26:57;102911.84;;;4.08;59.46
44044;BME280;29709;52.396;16.796;2023-02-27T11:30:21;102915.55;;;4.24;58.63
44044;BME280;29709;52.396;16.796;2023-02-27T11:33:46;102914.59;;;4.25;57.12
44044;BME280;29709;52.396;16.796;2023-02-27T11:37:00;102918.19;;;4.26;56.05
44044;BME280;29709;52.396;16.796;2023-02-27T11:40:17;102919.83;;;4.30;56.30
44044;BME280;29709;52.396;16.796;2023-02-27T11:43:35;102917.10;;;4.30;55.55
44044;BME280;29709;52.396;16.796;2023-02-27T11:46:49;102909.66;;;4.33;56.21
44044;BME280;29709;52.396;16.796;2023-02-27T11:50:12;102912.38;;;4.33;55.76
44044;BME280;29709;52.396;16.796;2023-02-27T11:56:57;102913.17;;;4.35;54.42
44044;BME280;29709;52.396;16.796;2023-02-27T12:17:46;102900.80;;;4.47;53.99
44044;BME280;29709;52.396;16.796;2023-02-27T12:28:01;102907.30;;;4.62;51.90
44044;BME280;29709;52.396;16.796;2023-02-27T12:34:46;102913.30;;;4.69;51.00
44044;BME280;29709;52.396;16.796;2023-02-27T12:38:01;102907.79;;;4.87;51.10
44044;BME280;29709;52.396;16.796;2023-02-27T12:41:26;102909.39;;;5.09;51.50
44044;BME280;29709;52.396;16.796;2023-02-27T12:51:48;102901.63;;;5.01;50.67
44044;BME280;29709;52.396;16.796;2023-02-27T13:05:26;102914.94;;;4.90;48.82
44044;BME280;29709;52.396;16.796;2023-02-27T13:15:38;102921.09;;;4.59;49.74
44044;BME280;29709;52.396;16.796;2023-02-27T13:19:11;102925.07;;;4.52;50.08
44044;BME280;29709;52.396;16.796;2023-02-27T13:25:47;102915.43;;;4.27;50.61
44044;BME280;29709;52.396;16.796;2023-02-27T13:29:04;102918.27;;;4.24;51.49
44044;BME280;29709;52.396;16.796;2023-02-27T13:35:53;102919.74;;;4.31;51.58
44044;BME280;29709;52.396;16.796;2023-02-27T13:45:59;102930.99;;;4.24;51.13
44044;BME280;29709;52.396;16.796;2023-02-27T13:49:22;102928.78;;;4.32;50.72
44044;BME280;29709;52.396;16.796;2023-02-27T13:55:35;102930.17;;;4.41;50.75
44044;BME280;29709;52.396;16.796;2023-02-27T13:58:49;102919.80;;;4.49;51.14
44044;BME280;29709;52.396;16.796;2023-02-27T14:05:38;102926.38;;;4.62;50.25
44044;BME280;29709;52.396;16.796;2023-02-27T14:08:54;102928.93;;;4.65;50.47
44044;BME280;29709;52.396;16.796;2023-02-27T14:15:47;102928.43;;;4.57;50.90
44044;BME280;29709;52.396;16.796;2023-02-27T14:22:27;102934.07;;;4.71;50.66
44044;BME280;29709;52.396;16.796;2023-02-27T14:29:30;102941.08;;;4.58;50.19
44044;BME280;29709;52.396;16.796;2023-02-27T14:32:34;102948.62;;;4.53;49.78
44044;BME280;29709;52.396;16.796;2023-02-27T14:35:58;102943.45;;;4.47;49.71
44044;BME280;29709;52.396;16.796;2023-02-27T14:39:21;102949.66;;;4.50;50.16
44044;BME280;29709;52.396;16.796;2023-02-27T14:42:47;102935.80;;;4.55;50.54
44044;BME280;29709;52.396;16.796;2023-02-27T14:46:13;102948.70;;;4.51;50.17
44044;BME280;29709;52.396;16.796;2023-02-27T14:49:30;102947.81;;;4.51;50.32
44044;BME280;29709;52.396;16.796;2023-02-27T14:52:44;102953.36;;;4.49;49.03
44044;BME280;29709;52.396;16.796;2023-02-27T14:56:00;102958.92;;;4.46;49.09
44044;BME280;29709;52.396;16.796;2023-02-27T14:59:23;102951.08;;;4.40;48.60
44044;BME280;29709;52.396;16.796;2023-02-27T15:02:37;102965.32;;;4.45;49.42
44044;BME280;29709;52.396;16.796;2023-02-27T15:05:52;102969.90;;;4.45;48.84
44044;BME280;29709;52.396;16.796;2023-02-27T15:09:07;102973.87;;;4.38;47.69
44044;BME280;29709;52.396;16.796;2023-02-27T15:12:22;102973.39;;;4.29;47.08
44044;BME280;29709;52.396;16.796;2023-02-27T15:15:36;102975.35;;;4.26;46.44
44044;BME280;29709;52.396;16.796;2023-02-27T15:18:55;102973.90;;;4.19;46.47
44044;BME280;29709;52.396;16.796;2023-02-27T15:22:18;102977.71;;;4.15;45.63
44044;BME280;29709;52.396;16.796;2023-02-27T15:25:35;102978.67;;;4.14;45.67
44044;BME280;29709;52.396;16.796;2023-02-27T15:28:49;102986.76;;;4.15;45.70
44044;BME280;29709;52.396;16.796;2023-02-27T15:32:04;102993.53;;;4.25;46.70
44044;BME280;29709;52.396;16.796;2023-02-27T15:35:22;102985.07;;;4.31;46.40
44044;BME280;29709;52.396;16.796;2023-02-27T15:38:36;102996.77;;;4.33;46.97
44044;BME280;29709;52.396;16.796;2023-02-27T15:41:53;102995.88;;;4.33;47.40
44044;BME280;29709;52.396;16.796;2023-02-27T15:45:10;103002.37;;;4.30;47.80
44044;BME280;29709;52.396;16.796;2023-02-27T15:48:30;103004.14;;;4.31;47.98
44044;BME280;29709;52.396;16.796;2023-02-27T15:51:53;103008.90;;;4.26;47.77
44044;BME280;29709;52.396;16.796;2023-02-27T15:55:15;103011.70;;;4.25;48.24
44044;BME280;29709;52.396;16.796;2023-02-27T15:58:31;103010.17;;;4.19;48.86
44044;BME280;29709;52.396;16.796;2023-02-27T16:01:47;103022.29;;;4.12;49.41
44044;BME280;29709;52.396;16.796;2023-02-27T16:05:01;103021.14;;;4.18;49.88
44044;BME280;29709;52.396;16.796;2023-02-27T16:08:17;103032.66;;;4.23;50.20
44044;BME280;29709;52.396;16.796;2023-02-27T16:11:33;103028.19;;;4.22;50.48
44044;BME280;29709;52.396;16.796;2023-02-27T16:14:49;103030.66;;;4.26;50.65
44044;BME280;29709;52.396;16.796;2023-02-27T16:21:29;103029.36;;;4.35;51.27
44044;BME280;29709;52.396;16.796;2023-02-27T16:24:44;103030.40;;;4.32;51.36
44044;BME280;29709;52.396;16.796;2023-02-27T16:27:57;103040.25;;;4.35;51.81
44044;BME280;29709;52.396;16.796;2023-02-27T16:34:39;103048.84;;;4.26;52.45
44044;BME280;29709;52.396;16.796;2023-02-27T16:38:00;103049.07;;;4.21;52.40
44044;BME280;29709;52.396;16.796;2023-02-27T16:41:15;103052.91;;;4.17;52.68
44044;BME280;29709;52.396;16.796;2023-02-27T16:44:29;103054.95;;;4.12;52.93
44044;BME280;29709;52.396;16.796;2023-02-27T16:47:42;103054.49;;;4.02;52.98
44044;BME280;29709;52.396;16.796;2023-02-27T16:50:55;103063.69;;;4.00;53.26
44044;BME280;29709;52.396;16.796;2023-02-27T16:54:09;103066.06;;;4.08;53.41
44044;BME280;29709;52.396;16.796;2023-02-27T16:57:24;103065.02;;;4.10;53.71
44044;BME280;29709;52.396;16.796;2023-02-27T17:00:40;103073.27;;;4.09;53.46
44044;BME280;29709;52.396;16.796;2023-02-27T17:03:53;103067.52;;;4.15;53.49
44044;BME280;29709;52.396;16.796;2023-02-27T17:07:12;103072.31;;;4.10;53.62
44044;BME280;29709;52.396;16.796;2023-02-27T17:10:27;103077.30;;;4.00;53.78
44044;BME280;29709;52.396;16.796;2023-02-27T17:13:41;103086.59;;;3.94;54.26
44044;BME280;29709;52.396;16.796;2023-02-27T17:16:54;103085.79;;;3.92;54.22
44044;BME280;29709;52.396;16.796;2023-02-27T17:20:12;103090.36;;;3.92;53.81
44044;BME280;29709;52.396;16.796;2023-02-27T17:23:25;103093.30;;;3.87;54.08
44044;BME280;29709;52.396;16.796;2023-02-27T17:26:39;103093.63;;;3.80;54.00
44044;BME280;29709;52.396;16.796;2023-02-27T17:29:52;103092.82;;;3.78;54.14
44044;BME280;29709;52.396;16.796;2023-02-27T17:33:05;103096.70;;;3.72;54.07
44044;BME280;29709;52.396;16.796;2023-02-27T17:36:20;103098.59;;;3.70;54.24
44044;BME280;29709;52.396;16.796;2023-02-27T17:39:34;103097.85;;;3.66;54.25
44044;BME280;29709;52.396;16.796;2023-02-27T17:42:47;103105.06;;;3.67;54.74
44044;BME280;29709;52.396;16.796;2023-02-27T17:46:04;103098.81;;;3.65;54.52
44044;BME280;29709;52.396;16.796;2023-02-27T17:49:17;103105.54;;;3.77;54.94
44044;BME280;29709;52.396;16.796;2023-02-27T17:52:31;103113.48;;;3.82;54.77
44044;BME280;29709;52.396;16.796;2023-02-27T17:55:44;103110.35;;;3.91;55.94
44044;BME280;29709;52.396;16.796;2023-02-27T17:58:57;103109.22;;;3.96;54.62
44044;BME280;29709;52.396;16.796;2023-02-27T18:02:11;103108.59;;;3.90;54.53
44044;BME280;29709;52.396;16.796;2023-02-27T18:05:25;103107.86;;;3.86;54.91
44044;BME280;29709;52.396;16.796;2023-02-27T18:08:38;103108.05;;;3.82;54.77
44044;BME280;29709;52.396;16.796;2023-02-27T18:11:51;103117.31;;;3.78;54.90
44044;BME280;29709;52.396;16.796;2023-02-27T18:15:05;103114.91;;;3.70;55.22
44044;BME280;29709;52.396;16.796;2023-02-27T18:18:19;103114.70;;;3.74;55.10
44044;BME280;29709;52.396;16.796;2023-02-27T18:21:33;103115.39;;;3.80;55.22
44044;BME280;29709;52.396;16.796;2023-02-27T18:24:47;103124.44;;;3.80;55.26
44044;BME280;29709;52.396;16.796;2023-02-27T18:28:01;103124.02;;;3.69;55.51
44044;BME280;29709;52.396;16.796;2023-02-27T18:31:21;103127.36;;;3.55;55.98
44044;BME280;29709;52.396;16.796;2023-02-27T18:34:38;103132.02;;;3.52;55.99
44044;BME280;29709;52.396;16.796;2023-02-27T18:37:52;103128.55;;;3.48;55.99
44044;BME280;29709;52.396;16.796;2023-02-27T18:41:05;103131.52;;;3.42;56.24
44044;BME280;29709;52.396;16.796;2023-02-27T18:44:21;103140.64;;;3.41;56.37
44044;BME280;29709;52.396;16.796;2023-02-27T18:47:34;103136.70;;;3.48;56.03
44044;BME280;29709;52.396;16.796;2023-02-27T18:50:48;103135.77;;;3.49;56.23
44044;BME280;29709;52.396;16.796;2023-02-27T18:54:01;103143.04;;;3.48;55.96
44044;BME280;29709;52.396;16.796;2023-02-27T18:57:16;103132.23;;;3.47;55.87
44044;BME280;29709;52.396;16.796;2023-02-27T19:00:30;103140.45;;;3.45;55.66
44044;BME280;29709;52.396;16.796;2023-02-27T19:03:43;103137.45;;;3.52;55.89
44044;BME280;29709;52.396;16.796;2023-02-27T19:06:56;103138.34;;;3.52;56.15
44044;BME280;29709;52.396;16.796;2023-02-27T19:10:11;103132.79;;;3.55;56.31
44044;BME280;29709;52.396;16.796;2023-02-27T19:13:25;103129.78;;;3.61;57.44
44044;BME280;29709;52.396;16.796;2023-02-27T19:16:39;103130.81;;;3.59;56.95
44044;BME280;29709;52.396;16.796;2023-02-27T19:19:52;103139.86;;;3.59;57.49
44044;BME280;29709;52.396;16.796;2023-02-27T19:23:05;103143.23;;;3.44;56.84
44044;BME280;29709;52.396;16.796;2023-02-27T19:26:19;103144.08;;;3.24;56.79
44044;BME280;29709;52.396;16.796;2023-02-27T19:29:32;103147.03;;;3.18;56.76
44044;BME280;29709;52.396;16.796;2023-02-27T19:32:46;103141.60;;;3.18;56.63
44044;BME280;29709;52.396;16.796;2023-02-27T19:36:03;103135.87;;;3.26;57.86
44044;BME280;29709;52.396;16.796;2023-02-27T19:39:17;103142.92;;;3.30;57.02
44044;BME280;29709;52.396;16.796;2023-02-27T19:42:30;103152.16;;;3.26;56.73
44044;BME280;29709;52.396;16.796;2023-02-27T19:45:44;103151.09;;;3.08;56.79
44044;BME280;29709;52.396;16.796;2023-02-27T19:48:59;103152.27;;;3.01;57.05
44044;BME280;29709;52.396;16.796;2023-02-27T19:52:14;103154.95;;;3.02;57.09
44044;BME280;29709;52.396;16.796;2023-02-27T19:55:28;103156.75;;;3.02;57.12
44044;BME280;29709;52.396;16.796;2023-02-27T19:58:41;103148.79;;;2.97;57.17
44044;BME280;29709;52.396;16.796;2023-02-27T20:01:54;103158.98;;;2.92;57.44
44044;BME280;29709;52.396;16.796;2023-02-27T20:05:08;103153.03;;;2.82;57.49
44044;BME280;29709;52.396;16.796;2023-02-27T20:08:23;103156.86;;;2.77;57.95
44044;BME280;29709;52.396;16.796;2023-02-27T20:11:37;103157.74;;;2.77;57.92
44044;BME280;29709;52.396;16.796;2023-02-27T20:14:50;103154.37;;;2.71;58.36
44044;BME280;29709;52.396;16.796;2023-02-27T20:18:04;103156.16;;;2.72;58.63
44044;BME280;29709;52.396;16.796;2023-02-27T20:21:22;103163.04;;;2.80;58.50
44044;BME280;29709;52.396;16.796;2023-02-27T20:24:36;103154.73;;;2.85;58.26